sensor_id;sensor_type;location;lat;lon;timestamp;P1;durP1;ratioP1;P2;durP2;ratioP2
8580;SDS011;4328;48.622;9.230;2023-01-08T00:00:41;19.60;;;14.47;;
8580;SDS011;4328;48.622;9.230;2023-01-08T00:03:07;9.97;;;8.93;;
8580;SDS011;4328;48.622;9.230;2023-01-08T00:05:35;9.73;;;8.73;;
8580;SDS011;4328;48.622;9.230;2023-01-08T00:08:02;11.87;;;8.87;;
8580;SDS011;4328;48.622;9.230;2023-01-08T00:10:28;8.90;;;7.67;;
8580;SDS011;4328;48.622;9.230;2023-01-08T00:12:54;6.30;;;5.67;;
8580;SDS011;4328;48.622;9.230;2023-01-08T00:15:21;6.57;;;5.97;;
8580;SDS011;4328;48.622;9.230;2023-01-08T00:17:47;9.03;;;6.63;;
8580;SDS011;4328;48.622;9.230;2023-01-08T00:20:14;5.50;;;5.00;;
8580;SDS011;4328;48.622;9.230;2023-01-08T00:22:42;9.30;;;8.03;;
8580;SDS011;4328;48.622;9.230;2023-01-08T00:25:08;10.60;;;9.13;;
8580;SDS011;4328;48.622;9.230;2023-01-08T00:27:35;8.00;;;6.50;;
8580;SDS011;4328;48.622;9.230;2023-01-08T00:30:01;10.27;;;8.23;;
8580;SDS011;4328;48.622;9.230;2023-01-08T00:32:27;9.23;;;8.13;;
8580;SDS011;4328;48.622;9.230;2023-01-08T00:34:54;7.70;;;6.43;;
8580;SDS011;4328;48.622;9.230;2023-01-08T00:37:20;5.30;;;4.80;;
8580;SDS011;4328;48.622;9.230;2023-01-08T00:39:48;7.20;;;4.80;;
8580;SDS011;4328;48.622;9.230;2023-01-08T00:42:14;5.27;;;4.60;;
8580;SDS011;4328;48.622;9.230;2023-01-08T00:44:41;6.53;;;5.67;;
8580;SDS011;4328;48.622;9.230;2023-01-08T00:47:07;5.90;;;5.30;;
8580;SDS011;4328;48.622;9.230;2023-01-08T00:49:33;8.27;;;5.57;;
8580;SDS011;4328;48.622;9.230;2023-01-08T00:52:00;5.80;;;5.20;;
8580;SDS011;4328;48.622;9.230;2023-01-08T00:54:26;5.60;;;5.10;;
8580;SDS011;4328;48.622;9.230;2023-01-08T00:56:54;7.00;;;5.33;;
8580;SDS011;4328;48.622;9.230;2023-01-08T00:59:21;6.63;;;5.33;;
8580;SDS011;4328;48.622;9.230;2023-01-08T01:01:47;5.90;;;5.30;;
8580;SDS011;4328;48.622;9.230;2023-01-08T01:04:13;7.00;;;6.00;;
8580;SDS011;4328;48.622;9.230;2023-01-08T01:06:40;6.63;;;5.30;;
8580;SDS011;4328;48.622;9.230;2023-01-08T01:09:06;4.80;;;4.40;;
8580;SDS011;4328;48.622;9.230;2023-01-08T01:11:33;5.77;;;5.00;;
8580;SDS011;4328;48.622;9.230;2023-01-08T01:14:01;5.50;;;5.00;;
8580;SDS011;4328;48.622;9.230;2023-01-08T01:16:27;5.27;;;4.77;;
8580;SDS011;4328;48.622;9.230;2023-01-08T01:18:54;7.33;;;4.70;;
8580;SDS011;4328;48.622;9.230;2023-01-08T01:21:22;4.73;;;4.33;;
8580;SDS011;4328;48.622;9.230;2023-01-08T01:23:49;6.50;;;4.93;;
8580;SDS011;4328;48.622;9.230;2023-01-08T01:26:18;5.30;;;4.70;;
8580;SDS011;4328;48.622;9.230;2023-01-08T01:28:45;4.93;;;4.50;;
8580;SDS011;4328;48.622;9.230;2023-01-08T01:31:13;5.33;;;4.77;;
8580;SDS011;4328;48.622;9.230;2023-01-08T01:33:40;6.50;;;4.60;;
8580;SDS011;4328;48.622;9.230;2023-01-08T01:36:07;5.63;;;5.10;;
8580;SDS011;4328;48.622;9.230;2023-01-08T01:38:34;7.07;;;4.87;;
8580;SDS011;4328;48.622;9.230;2023-01-08T01:41:01;5.83;;;4.90;;
8580;SDS011;4328;48.622;9.230;2023-01-08T01:43:34;5.63;;;5.03;;
8580;SDS011;4328;48.622;9.230;2023-01-08T01:46:01;7.20;;;5.50;;
8580;SDS011;4328;48.622;9.230;2023-01-08T01:48:29;6.83;;;4.87;;
8580;SDS011;4328;48.622;9.230;2023-01-08T01:50:55;5.80;;;5.13;;
8580;SDS011;4328;48.622;9.230;2023-01-08T01:53:22;5.83;;;5.10;;
8580;SDS011;4328;48.622;9.230;2023-01-08T01:55:49;5.57;;;5.03;;
8580;SDS011;4328;48.622;9.230;2023-01-08T01:58:17;5.60;;;5.10;;
8580;SDS011;4328;48.622;9.230;2023-01-08T02:00:45;6.27;;;5.07;;
8580;SDS011;4328;48.622;9.230;2023-01-08T02:03:12;6.17;;;5.03;;
8580;SDS011;4328;48.622;9.230;2023-01-08T02:05:43;5.47;;;4.97;;
8580;SDS011;4328;48.622;9.230;2023-01-08T02:08:11;5.73;;;5.23;;
8580;SDS011;4328;48.622;9.230;2023-01-08T02:10:41;6.13;;;5.00;;
8580;SDS011;4328;48.622;9.230;2023-01-08T02:13:09;6.67;;;5.00;;
8580;SDS011;4328;48.622;9.230;2023-01-08T02:15:39;6.73;;;5.30;;
8580;SDS011;4328;48.622;9.230;2023-01-08T02:18:09;11.83;;;9.60;;
8580;SDS011;4328;48.622;9.230;2023-01-08T02:20:38;6.50;;;5.30;;
8580;SDS011;4328;48.622;9.230;2023-01-08T02:23:09;5.20;;;4.70;;
8580;SDS011;4328;48.622;9.230;2023-01-08T02:25:39;6.43;;;5.30;;
8580;SDS011;4328;48.622;9.230;2023-01-08T02:28:11;5.53;;;5.03;;
8580;SDS011;4328;48.622;9.230;2023-01-08T02:30:39;5.90;;;5.27;;
8580;SDS011;4328;48.622;9.230;2023-01-08T02:33:06;6.63;;;5.27;;
8580;SDS011;4328;48.622;9.230;2023-01-08T02:35:33;5.33;;;4.83;;
8580;SDS011;4328;48.622;9.230;2023-01-08T02:38:03;6.07;;;5.20;;
8580;SDS011;4328;48.622;9.230;2023-01-08T02:40:30;6.03;;;5.13;;
8580;SDS011;4328;48.622;9.230;2023-01-08T02:43:00;5.87;;;4.90;;
8580;SDS011;4328;48.622;9.230;2023-01-08T02:45:34;5.77;;;5.13;;
8580;SDS011;4328;48.622;9.230;2023-01-08T02:48:02;7.77;;;5.00;;
8580;SDS011;4328;48.622;9.230;2023-01-08T02:50:32;6.70;;;5.30;;
8580;SDS011;4328;48.622;9.230;2023-01-08T02:53:02;6.10;;;5.30;;
8580;SDS011;4328;48.622;9.230;2023-01-08T02:55:30;6.37;;;5.77;;
8580;SDS011;4328;48.622;9.230;2023-01-08T02:57:57;6.90;;;5.43;;
8580;SDS011;4328;48.622;9.230;2023-01-08T03:00:24;5.43;;;4.93;;
8580;SDS011;4328;48.622;9.230;2023-01-08T03:02:53;7.40;;;5.67;;
8580;SDS011;4328;48.622;9.230;2023-01-08T03:05:25;6.03;;;5.10;;
8580;SDS011;4328;48.622;9.230;2023-01-08T03:07:52;5.73;;;5.17;;
8580;SDS011;4328;48.622;9.230;2023-01-08T03:10:20;6.10;;;5.50;;
8580;SDS011;4328;48.622;9.230;2023-01-08T03:12:49;6.07;;;5.20;;
8580;SDS011;4328;48.622;9.230;2023-01-08T03:15:19;6.10;;;5.47;;
8580;SDS011;4328;48.622;9.230;2023-01-08T03:17:47;5.50;;;5.00;;
8580;SDS011;4328;48.622;9.230;2023-01-08T03:20:16;5.57;;;5.07;;
8580;SDS011;4328;48.622;9.230;2023-01-08T03:22:45;5.73;;;5.13;;
8580;SDS011;4328;48.622;9.230;2023-01-08T03:25:13;7.20;;;5.13;;
8580;SDS011;4328;48.622;9.230;2023-01-08T03:27:40;7.77;;;5.43;;
8580;SDS011;4328;48.622;9.230;2023-01-08T03:30:08;5.87;;;5.27;;
8580;SDS011;4328;48.622;9.230;2023-01-08T03:32:35;6.07;;;5.17;;
8580;SDS011;4328;48.622;9.230;2023-01-08T03:35:04;5.80;;;5.10;;
8580;SDS011;4328;48.622;9.230;2023-01-08T03:37:34;5.90;;;5.10;;
8580;SDS011;4328;48.622;9.230;2023-01-08T03:40:02;5.23;;;4.57;;
8580;SDS011;4328;48.622;9.230;2023-01-08T03:42:31;6.93;;;5.10;;
8580;SDS011;4328;48.622;9.230;2023-01-08T03:44:57;6.70;;;5.20;;
8580;SDS011;4328;48.622;9.230;2023-01-08T03:47:24;5.83;;;5.30;;
8580;SDS011;4328;48.622;9.230;2023-01-08T03:49:52;5.40;;;4.90;;
8580;SDS011;4328;48.622;9.230;2023-01-08T03:52:20;5.63;;;4.70;;
8580;SDS011;4328;48.622;9.230;2023-01-08T03:54:48;5.70;;;5.13;;
8580;SDS011;4328;48.622;9.230;2023-01-08T03:57:15;5.23;;;4.73;;
8580;SDS011;4328;48.622;9.230;2023-01-08T03:59:41;5.27;;;4.77;;
8580;SDS011;4328;48.622;9.230;2023-01-08T04:02:08;5.23;;;4.73;;
8580;SDS011;4328;48.622;9.230;2023-01-08T04:04:34;6.77;;;4.67;;
8580;SDS011;4328;48.622;9.230;2023-01-08T04:07:00;5.33;;;4.83;;
8580;SDS011;4328;48.622;9.230;2023-01-08T04:09:27;4.83;;;4.43;;
8580;SDS011;4328;48.622;9.230;2023-01-08T04:11:55;5.83;;;4.93;;
8580;SDS011;4328;48.622;9.230;2023-01-08T04:14:21;5.70;;;4.60;;
8580;SDS011;4328;48.622;9.230;2023-01-08T04:16:47;5.33;;;4.83;;
8580;SDS011;4328;48.622;9.230;2023-01-08T04:19:14;6.67;;;4.60;;
8580;SDS011;4328;48.622;9.230;2023-01-08T04:21:40;6.87;;;4.57;;
8580;SDS011;4328;48.622;9.230;2023-01-08T04:24:07;5.23;;;4.33;;
8580;SDS011;4328;48.622;9.230;2023-01-08T04:26:33;5.17;;;4.67;;
8580;SDS011;4328;48.622;9.230;2023-01-08T04:29:02;4.90;;;4.40;;
8580;SDS011;4328;48.622;9.230;2023-01-08T04:31:28;5.50;;;4.83;;
8580;SDS011;4328;48.622;9.230;2023-01-08T04:33:54;5.67;;;4.90;;
8580;SDS011;4328;48.622;9.230;2023-01-08T04:36:21;5.90;;;4.20;;
8580;SDS011;4328;48.622;9.230;2023-01-08T04:38:47;5.87;;;4.47;;
8580;SDS011;4328;48.622;9.230;2023-01-08T04:41:14;5.27;;;4.50;;
8580;SDS011;4328;48.622;9.230;2023-01-08T04:43:42;6.53;;;4.43;;
8580;SDS011;4328;48.622;9.230;2023-01-08T04:46:10;4.87;;;4.37;;
8580;SDS011;4328;48.622;9.230;2023-01-08T04:48:36;5.40;;;4.27;;
8580;SDS011;4328;48.622;9.230;2023-01-08T04:51:03;4.50;;;4.10;;
8580;SDS011;4328;48.622;9.230;2023-01-08T04:53:32;6.80;;;4.30;;
8580;SDS011;4328;48.622;9.230;2023-01-08T04:56:01;5.47;;;4.37;;
8580;SDS011;4328;48.622;9.230;2023-01-08T04:58:28;4.70;;;4.20;;
8580;SDS011;4328;48.622;9.230;2023-01-08T05:00:54;4.60;;;4.10;;
8580;SDS011;4328;48.622;9.230;2023-01-08T05:03:22;4.90;;;4.40;;
8580;SDS011;4328;48.622;9.230;2023-01-08T05:05:49;4.60;;;4.20;;
8580;SDS011;4328;48.622;9.230;2023-01-08T05:08:15;6.23;;;4.67;;
8580;SDS011;4328;48.622;9.230;2023-01-08T05:10:41;6.23;;;4.57;;
8580;SDS011;4328;48.622;9.230;2023-01-08T05:13:08;4.50;;;3.93;;
8580;SDS011;4328;48.622;9.230;2023-01-08T05:15:34;5.33;;;4.23;;
8580;SDS011;4328;48.622;9.230;2023-01-08T05:18:01;4.50;;;4.00;;
8580;SDS011;4328;48.622;9.230;2023-01-08T05:20:29;5.10;;;4.53;;
8580;SDS011;4328;48.622;9.230;2023-01-08T05:22:56;4.77;;;4.07;;
8580;SDS011;4328;48.622;9.230;2023-01-08T05:25:23;6.17;;;4.10;;
8580;SDS011;4328;48.622;9.230;2023-01-08T05:27:50;5.07;;;4.53;;
8580;SDS011;4328;48.622;9.230;2023-01-08T05:30:17;4.73;;;4.23;;
8580;SDS011;4328;48.622;9.230;2023-01-08T05:32:43;6.20;;;4.90;;
8580;SDS011;4328;48.622;9.230;2023-01-08T05:35:10;5.83;;;5.13;;
8580;SDS011;4328;48.622;9.230;2023-01-08T05:37:37;5.63;;;5.13;;
8580;SDS011;4328;48.622;9.230;2023-01-08T05:40:04;7.17;;;6.47;;
8580;SDS011;4328;48.622;9.230;2023-01-08T05:42:32;6.73;;;5.30;;
8580;SDS011;4328;48.622;9.230;2023-01-08T05:44:58;7.37;;;6.00;;
8580;SDS011;4328;48.622;9.230;2023-01-08T05:47:27;7.10;;;6.40;;
8580;SDS011;4328;48.622;9.230;2023-01-08T05:49:54;9.27;;;6.73;;
8580;SDS011;4328;48.622;9.230;2023-01-08T05:52:20;7.80;;;6.73;;
8580;SDS011;4328;48.622;9.230;2023-01-08T05:54:48;6.70;;;5.93;;
8580;SDS011;4328;48.622;9.230;2023-01-08T05:57:14;7.67;;;6.93;;
8580;SDS011;4328;48.622;9.230;2023-01-08T05:59:41;7.33;;;6.53;;
8580;SDS011;4328;48.622;9.230;2023-01-08T06:02:07;8.07;;;7.17;;
8580;SDS011;4328;48.622;9.230;2023-01-08T06:04:34;8.43;;;7.57;;
8580;SDS011;4328;48.622;9.230;2023-01-08T06:07:00;7.70;;;6.80;;
8580;SDS011;4328;48.622;9.230;2023-01-08T06:09:27;8.10;;;7.30;;
8580;SDS011;4328;48.622;9.230;2023-01-08T06:11:55;8.00;;;7.20;;
8580;SDS011;4328;48.622;9.230;2023-01-08T06:14:22;9.00;;;7.67;;
8580;SDS011;4328;48.622;9.230;2023-01-08T06:16:48;7.47;;;6.77;;
8580;SDS011;4328;48.622;9.230;2023-01-08T06:19:14;7.67;;;6.33;;
8580;SDS011;4328;48.622;9.230;2023-01-08T06:21:44;9.80;;;7.93;;
8580;SDS011;4328;48.622;9.230;2023-01-08T06:24:10;9.03;;;7.63;;
8580;SDS011;4328;48.622;9.230;2023-01-08T06:26:37;8.10;;;7.30;;
8580;SDS011;4328;48.622;9.230;2023-01-08T06:29:04;7.63;;;6.83;;
8580;SDS011;4328;48.622;9.230;2023-01-08T06:31:31;9.00;;;7.27;;
8580;SDS011;4328;48.622;9.230;2023-01-08T06:33:57;8.17;;;7.30;;
8580;SDS011;4328;48.622;9.230;2023-01-08T06:36:26;7.37;;;6.50;;
8580;SDS011;4328;48.622;9.230;2023-01-08T06:38:53;8.17;;;6.93;;
8580;SDS011;4328;48.622;9.230;2023-01-08T06:41:20;7.87;;;6.33;;
8580;SDS011;4328;48.622;9.230;2023-01-08T06:43:46;8.17;;;7.00;;
8580;SDS011;4328;48.622;9.230;2023-01-08T06:46:14;8.27;;;6.77;;
8580;SDS011;4328;48.622;9.230;2023-01-08T06:48:41;9.80;;;6.83;;
8580;SDS011;4328;48.622;9.230;2023-01-08T06:51:07;7.73;;;6.93;;
8580;SDS011;4328;48.622;9.230;2023-01-08T06:53:33;6.50;;;5.90;;
8580;SDS011;4328;48.622;9.230;2023-01-08T06:56:01;7.70;;;6.37;;
8580;SDS011;4328;48.622;9.230;2023-01-08T06:58:27;7.63;;;6.63;;
8580;SDS011;4328;48.622;9.230;2023-01-08T07:00:54;7.97;;;6.73;;
8580;SDS011;4328;48.622;9.230;2023-01-08T07:03:24;8.53;;;7.20;;
8580;SDS011;4328;48.622;9.230;2023-01-08T07:05:50;8.20;;;6.70;;
8580;SDS011;4328;48.622;9.230;2023-01-08T07:08:17;7.97;;;6.50;;
8580;SDS011;4328;48.622;9.230;2023-01-08T07:10:43;8.30;;;6.33;;
8580;SDS011;4328;48.622;9.230;2023-01-08T07:13:10;6.53;;;5.90;;
8580;SDS011;4328;48.622;9.230;2023-01-08T07:15:36;7.70;;;6.80;;
8580;SDS011;4328;48.622;9.230;2023-01-08T07:18:03;8.57;;;7.50;;
8580;SDS011;4328;48.622;9.230;2023-01-08T07:20:31;9.07;;;8.13;;
8580;SDS011;4328;48.622;9.230;2023-01-08T07:22:59;13.40;;;7.97;;
8580;SDS011;4328;48.622;9.230;2023-01-08T07:25:26;9.43;;;7.33;;
8580;SDS011;4328;48.622;9.230;2023-01-08T07:27:52;7.10;;;6.00;;
8580;SDS011;4328;48.622;9.230;2023-01-08T07:30:18;7.03;;;5.90;;
8580;SDS011;4328;48.622;9.230;2023-01-08T07:32:45;6.57;;;5.87;;
8580;SDS011;4328;48.622;9.230;2023-01-08T07:35:11;6.00;;;5.40;;
8580;SDS011;4328;48.622;9.230;2023-01-08T07:37:39;4.43;;;3.60;;
8580;SDS011;4328;48.622;9.230;2023-01-08T07:40:06;3.80;;;3.43;;
8580;SDS011;4328;48.622;9.230;2023-01-08T07:42:33;3.20;;;2.90;;
8580;SDS011;4328;48.622;9.230;2023-01-08T07:44:59;2.50;;;2.30;;
8580;SDS011;4328;48.622;9.230;2023-01-08T07:47:26;2.47;;;2.27;;
8580;SDS011;4328;48.622;9.230;2023-01-08T07:49:52;2.67;;;2.20;;
8580;SDS011;4328;48.622;9.230;2023-01-08T07:52:19;2.67;;;2.20;;
8580;SDS011;4328;48.622;9.230;2023-01-08T07:54:46;3.67;;;2.27;;
8580;SDS011;4328;48.622;9.230;2023-01-08T07:57:13;2.20;;;2.00;;
8580;SDS011;4328;48.622;9.230;2023-01-08T07:59:39;2.50;;;2.30;;
8580;SDS011;4328;48.622;9.230;2023-01-08T08:02:06;2.93;;;2.73;;
8580;SDS011;4328;48.622;9.230;2023-01-08T08:04:32;3.03;;;1.77;;
8580;SDS011;4328;48.622;9.230;2023-01-08T08:06:58;2.20;;;2.00;;
8580;SDS011;4328;48.622;9.230;2023-01-08T08:09:25;2.87;;;2.53;;
8580;SDS011;4328;48.622;9.230;2023-01-08T08:11:52;2.50;;;2.30;;
8580;SDS011;4328;48.622;9.230;2023-01-08T08:14:19;2.10;;;1.90;;
8580;SDS011;4328;48.622;9.230;2023-01-08T08:16:45;2.63;;;2.40;;
8580;SDS011;4328;48.622;9.230;2023-01-08T08:19:12;2.77;;;2.57;;
8580;SDS011;4328;48.622;9.230;2023-01-08T08:21:39;2.20;;;2.10;;
8580;SDS011;4328;48.622;9.230;2023-01-08T08:24:06;4.10;;;2.00;;
8580;SDS011;4328;48.622;9.230;2023-01-08T08:26:32;2.60;;;2.03;;
8580;SDS011;4328;48.622;9.230;2023-01-08T08:29:00;2.93;;;2.47;;
8580;SDS011;4328;48.622;9.230;2023-01-08T08:31:26;4.27;;;2.20;;
8580;SDS011;4328;48.622;9.230;2023-01-08T08:33:53;2.40;;;2.20;;
8580;SDS011;4328;48.622;9.230;2023-01-08T08:36:19;2.53;;;2.33;;
8580;SDS011;4328;48.622;9.230;2023-01-08T08:38:46;3.00;;;2.20;;
8580;SDS011;4328;48.622;9.230;2023-01-08T08:41:12;3.93;;;2.47;;
8580;SDS011;4328;48.622;9.230;2023-01-08T08:43:38;2.53;;;2.00;;
8580;SDS011;4328;48.622;9.230;2023-01-08T08:46:06;2.27;;;2.07;;
8580;SDS011;4328;48.622;9.230;2023-01-08T08:48:32;3.33;;;2.20;;
8580;SDS011;4328;48.622;9.230;2023-01-08T08:50:59;2.33;;;2.23;;
8580;SDS011;4328;48.622;9.230;2023-01-08T08:53:25;5.83;;;2.70;;
8580;SDS011;4328;48.622;9.230;2023-01-08T08:55:52;2.07;;;1.97;;
8580;SDS011;4328;48.622;9.230;2023-01-08T08:58:18;3.17;;;2.33;;
8580;SDS011;4328;48.622;9.230;2023-01-08T09:00:44;2.30;;;1.83;;
8580;SDS011;4328;48.622;9.230;2023-01-08T09:03:12;1.90;;;1.80;;
8580;SDS011;4328;48.622;9.230;2023-01-08T09:05:39;2.60;;;2.00;;
8580;SDS011;4328;48.622;9.230;2023-01-08T09:08:07;2.70;;;1.90;;
8580;SDS011;4328;48.622;9.230;2023-01-08T09:10:34;3.13;;;2.83;;
8580;SDS011;4328;48.622;9.230;2023-01-08T09:13:01;3.43;;;2.23;;
8580;SDS011;4328;48.622;9.230;2023-01-08T09:15:27;3.10;;;2.73;;
8580;SDS011;4328;48.622;9.230;2023-01-08T09:17:54;2.20;;;2.00;;
8580;SDS011;4328;48.622;9.230;2023-01-08T09:20:21;2.50;;;2.30;;
8580;SDS011;4328;48.622;9.230;2023-01-08T09:22:48;1.80;;;1.70;;
8580;SDS011;4328;48.622;9.230;2023-01-08T09:25:14;2.17;;;1.70;;
8580;SDS011;4328;48.622;9.230;2023-01-08T09:27:41;3.77;;;1.90;;
8580;SDS011;4328;48.622;9.230;2023-01-08T09:30:08;2.20;;;1.60;;
8580;SDS011;4328;48.622;9.230;2023-01-08T09:32:34;2.00;;;1.90;;
8580;SDS011;4328;48.622;9.230;2023-01-08T09:35:01;2.13;;;1.80;;
8580;SDS011;4328;48.622;9.230;2023-01-08T09:37:28;2.00;;;1.70;;
8580;SDS011;4328;48.622;9.230;2023-01-08T09:39:55;1.60;;;1.50;;
8580;SDS011;4328;48.622;9.230;2023-01-08T09:42:22;1.67;;;1.57;;
8580;SDS011;4328;48.622;9.230;2023-01-08T09:44:51;1.77;;;1.60;;
8580;SDS011;4328;48.622;9.230;2023-01-08T09:47:20;2.23;;;1.50;;
8580;SDS011;4328;48.622;9.230;2023-01-08T09:49:47;3.87;;;1.90;;
8580;SDS011;4328;48.622;9.230;2023-01-08T09:52:14;2.17;;;1.40;;
8580;SDS011;4328;48.622;9.230;2023-01-08T09:54:42;2.03;;;1.63;;
8580;SDS011;4328;48.622;9.230;2023-01-08T09:57:09;3.57;;;1.80;;
8580;SDS011;4328;48.622;9.230;2023-01-08T09:59:37;1.90;;;1.80;;
8580;SDS011;4328;48.622;9.230;2023-01-08T10:02:08;2.00;;;1.80;;
8580;SDS011;4328;48.622;9.230;2023-01-08T10:04:36;2.10;;;2.00;;
8580;SDS011;4328;48.622;9.230;2023-01-08T10:07:04;3.30;;;1.97;;
8580;SDS011;4328;48.622;9.230;2023-01-08T10:09:33;1.97;;;1.87;;
8580;SDS011;4328;48.622;9.230;2023-01-08T10:12:02;1.87;;;1.77;;
8580;SDS011;4328;48.622;9.230;2023-01-08T10:14:29;2.07;;;1.97;;
8580;SDS011;4328;48.622;9.230;2023-01-08T10:16:57;2.10;;;1.90;;
8580;SDS011;4328;48.622;9.230;2023-01-08T10:19:24;2.17;;;1.87;;
8580;SDS011;4328;48.622;9.230;2023-01-08T10:21:50;2.07;;;1.97;;
8580;SDS011;4328;48.622;9.230;2023-01-08T10:24:28;2.40;;;2.20;;
8580;SDS011;4328;48.622;9.230;2023-01-08T10:27:04;2.40;;;2.20;;
8580;SDS011;4328;48.622;9.230;2023-01-08T10:29:31;2.70;;;2.43;;
8580;SDS011;4328;48.622;9.230;2023-01-08T10:31:58;2.60;;;2.40;;
8580;SDS011;4328;48.622;9.230;2023-01-08T10:34:30;2.67;;;1.90;;
8580;SDS011;4328;48.622;9.230;2023-01-08T10:36:57;4.67;;;2.00;;
8580;SDS011;4328;48.622;9.230;2023-01-08T10:39:25;3.07;;;1.57;;
8580;SDS011;4328;48.622;9.230;2023-01-08T10:41:53;1.40;;;1.30;;
8580;SDS011;4328;48.622;9.230;2023-01-08T10:44:22;1.40;;;1.23;;
8580;SDS011;4328;48.622;9.230;2023-01-08T10:46:49;1.70;;;1.60;;
8580;SDS011;4328;48.622;9.230;2023-01-08T10:49:19;1.40;;;1.30;;
8580;SDS011;4328;48.622;9.230;2023-01-08T10:51:48;1.00;;;1.00;;
8580;SDS011;4328;48.622;9.230;2023-01-08T10:54:22;1.20;;;1.10;;
8580;SDS011;4328;48.622;9.230;2023-01-08T10:56:51;1.00;;;1.00;;
8580;SDS011;4328;48.622;9.230;2023-01-08T10:59:18;1.00;;;1.00;;
8580;SDS011;4328;48.622;9.230;2023-01-08T11:01:46;1.37;;;1.10;;
8580;SDS011;4328;48.622;9.230;2023-01-08T11:04:15;1.23;;;1.10;;
8580;SDS011;4328;48.622;9.230;2023-01-08T11:06:45;1.37;;;1.27;;
8580;SDS011;4328;48.622;9.230;2023-01-08T11:09:16;1.23;;;1.13;;
8580;SDS011;4328;48.622;9.230;2023-01-08T11:11:44;1.27;;;1.17;;
8580;SDS011;4328;48.622;9.230;2023-01-08T11:14:13;1.00;;;1.00;;
8580;SDS011;4328;48.622;9.230;2023-01-08T11:16:41;1.63;;;1.00;;
8580;SDS011;4328;48.622;9.230;2023-01-08T11:19:15;0.90;;;0.90;;
8580;SDS011;4328;48.622;9.230;2023-01-08T11:21:42;1.00;;;1.00;;
8580;SDS011;4328;48.622;9.230;2023-01-08T11:24:20;0.90;;;0.90;;
8580;SDS011;4328;48.622;9.230;2023-01-08T11:26:48;1.70;;;1.10;;
8580;SDS011;4328;48.622;9.230;2023-01-08T11:29:16;1.10;;;0.90;;
8580;SDS011;4328;48.622;9.230;2023-01-08T11:31:45;0.80;;;0.80;;
8580;SDS011;4328;48.622;9.230;2023-01-08T11:34:17;0.83;;;0.83;;
8580;SDS011;4328;48.622;9.230;2023-01-08T11:36:46;0.97;;;0.97;;
8580;SDS011;4328;48.622;9.230;2023-01-08T11:39:14;1.67;;;1.00;;
8580;SDS011;4328;48.622;9.230;2023-01-08T11:41:44;1.13;;;1.03;;
8580;SDS011;4328;48.622;9.230;2023-01-08T11:44:20;1.00;;;0.90;;
8580;SDS011;4328;48.622;9.230;2023-01-08T11:46:54;0.90;;;0.90;;
8580;SDS011;4328;48.622;9.230;2023-01-08T11:49:33;1.00;;;1.00;;
8580;SDS011;4328;48.622;9.230;2023-01-08T11:52:16;0.80;;;0.80;;
8580;SDS011;4328;48.622;9.230;2023-01-08T11:54:52;0.80;;;0.80;;
8580;SDS011;4328;48.622;9.230;2023-01-08T11:57:28;0.80;;;0.77;;
8580;SDS011;4328;48.622;9.230;2023-01-08T12:00:02;0.90;;;0.90;;
8580;SDS011;4328;48.622;9.230;2023-01-08T12:02:40;0.87;;;0.80;;
8580;SDS011;4328;48.622;9.230;2023-01-08T12:05:25;4.73;;;1.73;;
8580;SDS011;4328;48.622;9.230;2023-01-08T12:07:55;1.27;;;0.90;;
8580;SDS011;4328;48.622;9.230;2023-01-08T12:10:25;1.00;;;0.90;;
8580;SDS011;4328;48.622;9.230;2023-01-08T12:12:56;0.70;;;0.70;;
8580;SDS011;4328;48.622;9.230;2023-01-08T12:15:37;0.77;;;0.77;;
8580;SDS011;4328;48.622;9.230;2023-01-08T12:18:15;0.80;;;0.80;;
8580;SDS011;4328;48.622;9.230;2023-01-08T12:20:47;0.63;;;0.63;;
8580;SDS011;4328;48.622;9.230;2023-01-08T12:23:18;0.93;;;0.73;;
8580;SDS011;4328;48.622;9.230;2023-01-08T12:25:52;0.70;;;0.70;;
8580;SDS011;4328;48.622;9.230;2023-01-08T12:28:30;0.70;;;0.70;;
8580;SDS011;4328;48.622;9.230;2023-01-08T12:31:07;1.03;;;0.70;;
8580;SDS011;4328;48.622;9.230;2023-01-08T12:33:41;0.60;;;0.60;;
8580;SDS011;4328;48.622;9.230;2023-01-08T12:36:11;0.80;;;0.80;;
8580;SDS011;4328;48.622;9.230;2023-01-08T12:38:40;1.00;;;0.80;;
8580;SDS011;4328;48.622;9.230;2023-01-08T12:41:08;0.77;;;0.70;;
8580;SDS011;4328;48.622;9.230;2023-01-08T12:43:39;0.63;;;0.63;;
8580;SDS011;4328;48.622;9.230;2023-01-08T12:46:09;0.63;;;0.63;;
8580;SDS011;4328;48.622;9.230;2023-01-08T12:48:37;0.60;;;0.60;;
8580;SDS011;4328;48.622;9.230;2023-01-08T12:51:05;0.60;;;0.60;;
8580;SDS011;4328;48.622;9.230;2023-01-08T12:53:39;0.80;;;0.80;;
8580;SDS011;4328;48.622;9.230;2023-01-08T12:56:08;0.50;;;0.50;;
8580;SDS011;4328;48.622;9.230;2023-01-08T12:58:38;1.77;;;1.57;;
8580;SDS011;4328;48.622;9.230;2023-01-08T13:01:12;0.70;;;0.70;;
8580;SDS011;4328;48.622;9.230;2023-01-08T13:03:41;0.77;;;0.77;;
8580;SDS011;4328;48.622;9.230;2023-01-08T13:06:09;0.80;;;0.80;;
8580;SDS011;4328;48.622;9.230;2023-01-08T13:08:38;0.57;;;0.57;;
8580;SDS011;4328;48.622;9.230;2023-01-08T13:11:05;1.27;;;0.87;;
8580;SDS011;4328;48.622;9.230;2023-01-08T13:13:33;0.97;;;0.90;;
8580;SDS011;4328;48.622;9.230;2023-01-08T13:16:07;0.80;;;0.80;;
8580;SDS011;4328;48.622;9.230;2023-01-08T13:18:34;1.03;;;0.77;;
8580;SDS011;4328;48.622;9.230;2023-01-08T13:21:01;0.80;;;0.80;;
8580;SDS011;4328;48.622;9.230;2023-01-08T13:23:28;0.80;;;0.80;;
8580;SDS011;4328;48.622;9.230;2023-01-08T13:25:58;0.93;;;0.80;;
8580;SDS011;4328;48.622;9.230;2023-01-08T13:28:26;2.30;;;0.90;;
8580;SDS011;4328;48.622;9.230;2023-01-08T13:30:53;0.97;;;0.97;;
8580;SDS011;4328;48.622;9.230;2023-01-08T13:33:22;0.87;;;0.87;;
8580;SDS011;4328;48.622;9.230;2023-01-08T13:35:49;0.90;;;0.90;;
8580;SDS011;4328;48.622;9.230;2023-01-08T13:38:16;0.93;;;0.80;;
8580;SDS011;4328;48.622;9.230;2023-01-08T13:40:50;1.57;;;0.83;;
8580;SDS011;4328;48.622;9.230;2023-01-08T13:43:21;0.90;;;0.90;;
8580;SDS011;4328;48.622;9.230;2023-01-08T13:45:52;1.37;;;1.00;;
8580;SDS011;4328;48.622;9.230;2023-01-08T13:48:20;0.80;;;0.80;;
8580;SDS011;4328;48.622;9.230;2023-01-08T13:50:47;2.40;;;1.20;;
8580;SDS011;4328;48.622;9.230;2023-01-08T13:53:13;0.70;;;0.70;;
8580;SDS011;4328;48.622;9.230;2023-01-08T13:55:40;0.80;;;0.80;;
8580;SDS011;4328;48.622;9.230;2023-01-08T13:58:08;1.83;;;1.73;;
8580;SDS011;4328;48.622;9.230;2023-01-08T14:00:43;1.57;;;1.47;;
8580;SDS011;4328;48.622;9.230;2023-01-08T14:03:20;1.03;;;1.00;;
8580;SDS011;4328;48.622;9.230;2023-01-08T14:05:46;45.33;;;32.40;;
8580;SDS011;4328;48.622;9.230;2023-01-08T14:08:20;29.40;;;21.20;;
8580;SDS011;4328;48.622;9.230;2023-01-08T14:10:46;2.17;;;2.07;;
8580;SDS011;4328;48.622;9.230;2023-01-08T14:13:13;0.70;;;0.70;;
8580;SDS011;4328;48.622;9.230;2023-01-08T14:15:42;4.10;;;3.80;;
8580;SDS011;4328;48.622;9.230;2023-01-08T14:18:09;0.50;;;0.50;;
8580;SDS011;4328;48.622;9.230;2023-01-08T14:20:37;0.80;;;0.80;;
8580;SDS011;4328;48.622;9.230;2023-01-08T14:23:07;0.73;;;0.73;;
8580;SDS011;4328;48.622;9.230;2023-01-08T14:25:35;1.13;;;0.80;;
8580;SDS011;4328;48.622;9.230;2023-01-08T14:28:02;0.67;;;0.67;;
8580;SDS011;4328;48.622;9.230;2023-01-08T14:30:29;0.70;;;0.70;;
8580;SDS011;4328;48.622;9.230;2023-01-08T14:32:57;0.80;;;0.80;;
8580;SDS011;4328;48.622;9.230;2023-01-08T14:35:26;0.70;;;0.70;;
8580;SDS011;4328;48.622;9.230;2023-01-08T14:37:55;0.70;;;0.70;;
8580;SDS011;4328;48.622;9.230;2023-01-08T14:40:32;0.90;;;0.90;;
8580;SDS011;4328;48.622;9.230;2023-01-08T14:43:06;0.80;;;0.80;;
8580;SDS011;4328;48.622;9.230;2023-01-08T14:45:33;1.13;;;0.93;;
8580;SDS011;4328;48.622;9.230;2023-01-08T14:48:06;0.70;;;0.70;;
8580;SDS011;4328;48.622;9.230;2023-01-08T14:50:33;0.90;;;0.90;;
8580;SDS011;4328;48.622;9.230;2023-01-08T14:53:03;1.37;;;1.07;;
8580;SDS011;4328;48.622;9.230;2023-01-08T14:55:30;1.10;;;0.80;;
8580;SDS011;4328;48.622;9.230;2023-01-08T14:57:57;0.90;;;0.90;;
8580;SDS011;4328;48.622;9.230;2023-01-08T15:00:24;1.10;;;1.00;;
8580;SDS011;4328;48.622;9.230;2023-01-08T15:02:51;1.10;;;1.10;;
8580;SDS011;4328;48.622;9.230;2023-01-08T15:05:26;0.87;;;0.87;;
8580;SDS011;4328;48.622;9.230;2023-01-08T15:07:54;0.80;;;0.80;;
8580;SDS011;4328;48.622;9.230;2023-01-08T15:10:22;0.87;;;0.87;;
8580;SDS011;4328;48.622;9.230;2023-01-08T15:12:55;0.90;;;0.90;;
8580;SDS011;4328;48.622;9.230;2023-01-08T15:15:22;0.77;;;0.77;;
8580;SDS011;4328;48.622;9.230;2023-01-08T15:17:48;0.83;;;0.83;;
8580;SDS011;4328;48.622;9.230;2023-01-08T15:20:15;0.87;;;0.87;;